Weather at Old Buckenham Airfield

Public forecast

Using degrees Celsius for public forecast. Weather courtesy of forecast.io.

Closest aviation weather report (METAR) to Old Buckenham Airfield

Closest report is Norwich International Airport, 13.6 nm (25.2 km) NE. Retrieved 2022/05/23 18:20 UTC (16 minutes ago):

EGSH 231820Z 15004KT 120V200 9000 FEW007 BKN044 15/13 Q0999 NOSIG

Closest aviation forecast (TAF) to Old Buckenham Airfield

Forecast is more than 12 hours old.

Closest forecast is Norwich International Airport, 13.6 nm (25.2 km) NE. Retrieved 2020/03/31 21:39 UTC (2 years ago):

TAF TAF EGSH 311954Z 3121/0124 33005KT 9999 FEW040